sensor_id;sensor_type;location;lat;lon;timestamp;pressure;altitude;pressure_sealevel;temperature;humidity
21760;BME280;11041;50.854;20.580;2023-04-01T00:01:24;96920.56;;;8.34;100.00
21760;BME280;11041;50.854;20.580;2023-04-01T00:03:51;96911.13;;;8.31;100.00
21760;BME280;11041;50.854;20.580;2023-04-01T00:06:18;96927.09;;;8.42;100.00
21760;BME280;11041;50.854;20.580;2023-04-01T00:08:45;96909.88;;;8.29;100.00
21760;BME280;11041;50.854;20.580;2023-04-01T00:11:14;96932.69;;;8.45;100.00
21760;BME280;11041;50.854;20.580;2023-04-01T00:13:41;96923.56;;;8.41;100.00
21760;BME280;11041;50.854;20.580;2023-04-01T00:16:08;96920.34;;;8.39;99.67
21760;BME280;11041;50.854;20.580;2023-04-01T00:18:34;96910.78;;;8.33;99.48
21760;BME280;11041;50.854;20.580;2023-04-01T00:21:02;96915.56;;;8.36;99.66
21760;BME280;11041;50.854;20.580;2023-04-01T00:23:54;96902.13;;;8.31;99.49
21760;BME280;11041;50.854;20.580;2023-04-01T00:26:45;96915.94;;;8.35;99.26
21760;BME280;11041;50.854;20.580;2023-04-01T00:29:42;96909.78;;;8.25;98.91
21760;BME280;11041;50.854;20.580;2023-04-01T00:32:34;96916.84;;;8.26;98.67
21760;BME280;11041;50.854;20.580;2023-04-01T00:35:26;96910.69;;;8.17;99.18
21760;BME280;11041;50.854;20.580;2023-04-01T00:38:17;96898.19;;;8.04;98.91
21760;BME280;11041;50.854;20.580;2023-04-01T00:41:13;96898.28;;;7.95;99.31
21760;BME280;11041;50.854;20.580;2023-04-01T00:44:26;96912.19;;;8.02;99.59
21760;BME280;11041;50.854;20.580;2023-04-01T00:47:19;96916.19;;;7.93;99.56
21760;BME280;11041;50.854;20.580;2023-04-01T00:50:12;96917.34;;;7.92;99.91
21760;BME280;11041;50.854;20.580;2023-04-01T00:53:05;96908.31;;;7.79;100.00
21760;BME280;11041;50.854;20.580;2023-04-01T00:56:04;96885.66;;;7.66;100.00
21760;BME280;11041;50.854;20.580;2023-04-01T01:02:45;96887.25;;;7.67;100.00
21760;BME280;11041;50.854;20.580;2023-04-01T01:05:15;96876.31;;;7.55;99.97
21760;BME280;11041;50.854;20.580;2023-04-01T01:11:29;96883.38;;;7.43;99.60
21760;BME280;11041;50.854;20.580;2023-04-01T01:16:54;96883.94;;;7.37;99.50
21760;BME280;11041;50.854;20.580;2023-04-01T01:19:45;96897.47;;;7.33;99.60
21760;BME280;11041;50.854;20.580;2023-04-01T01:31:24;96892.97;;;7.04;99.20
21760;BME280;11041;50.854;20.580;2023-04-01T01:36:57;96885.44;;;6.89;99.48
21760;BME280;11041;50.854;20.580;2023-04-01T01:39:33;96868.75;;;6.69;99.28
21760;BME280;11041;50.854;20.580;2023-04-01T01:42:06;96865.53;;;6.55;99.51
21760;BME280;11041;50.854;20.580;2023-04-01T01:44:36;96887.00;;;6.56;99.65
21760;BME280;11041;50.854;20.580;2023-04-01T01:47:05;96882.31;;;6.45;99.34
21760;BME280;11041;50.854;20.580;2023-04-01T01:49:34;96895.88;;;6.53;99.82
21760;BME280;11041;50.854;20.580;2023-04-01T01:52:03;96904.53;;;6.55;100.00
21760;BME280;11041;50.854;20.580;2023-04-01T01:54:30;96913.03;;;6.54;100.00
21760;BME280;11041;50.854;20.580;2023-04-01T01:57:07;96884.44;;;6.39;100.00
21760;BME280;11041;50.854;20.580;2023-04-01T01:59:39;96912.91;;;6.50;99.81
21760;BME280;11041;50.854;20.580;2023-04-01T02:02:11;96898.94;;;6.31;99.85
21760;BME280;11041;50.854;20.580;2023-04-01T02:04:42;96920.09;;;6.34;99.62
21760;BME280;11041;50.854;20.580;2023-04-01T02:07:32;96915.78;;;6.33;99.21
21760;BME280;11041;50.854;20.580;2023-04-01T02:09:59;96923.22;;;6.24;98.97
21760;BME280;11041;50.854;20.580;2023-04-01T02:12:28;96896.06;;;6.06;99.16
21760;BME280;11041;50.854;20.580;2023-04-01T02:15:12;96893.06;;;5.99;98.59
21760;BME280;11041;50.854;20.580;2023-04-01T02:17:45;96913.88;;;6.04;98.60
21760;BME280;11041;50.854;20.580;2023-04-01T02:20:23;96917.13;;;5.97;98.96
21760;BME280;11041;50.854;20.580;2023-04-01T02:22:54;96898.38;;;5.87;99.39
21760;BME280;11041;50.854;20.580;2023-04-01T02:25:32;96919.22;;;5.91;98.82
21760;BME280;11041;50.854;20.580;2023-04-01T02:28:00;96917.63;;;5.90;99.12
21760;BME280;11041;50.854;20.580;2023-04-01T02:30:32;96919.06;;;5.88;99.64
21760;BME280;11041;50.854;20.580;2023-04-01T02:33:01;96901.97;;;5.79;99.76
21760;BME280;11041;50.854;20.580;2023-04-01T02:35:28;96906.44;;;5.83;99.79
21760;BME280;11041;50.854;20.580;2023-04-01T02:37:56;96902.47;;;5.72;98.92
21760;BME280;11041;50.854;20.580;2023-04-01T02:40:23;96925.19;;;5.85;99.17
21760;BME280;11041;50.854;20.580;2023-04-01T02:42:49;96911.91;;;5.74;98.70
21760;BME280;11041;50.854;20.580;2023-04-01T02:45:17;96928.00;;;5.67;99.23
21760;BME280;11041;50.854;20.580;2023-04-01T02:47:44;96911.81;;;5.62;99.10
21760;BME280;11041;50.854;20.580;2023-04-01T02:50:11;96933.28;;;5.72;99.59
21760;BME280;11041;50.854;20.580;2023-04-01T02:52:38;96908.78;;;5.64;99.91
21760;BME280;11041;50.854;20.580;2023-04-01T02:55:05;96930.88;;;5.71;99.95
21760;BME280;11041;50.854;20.580;2023-04-01T02:57:32;96923.34;;;5.68;100.00
21760;BME280;11041;50.854;20.580;2023-04-01T02:59:58;96924.16;;;5.68;100.00
21760;BME280;11041;50.854;20.580;2023-04-01T03:02:25;96927.16;;;5.75;100.00
21760;BME280;11041;50.854;20.580;2023-04-01T03:04:52;96933.22;;;5.81;100.00
21760;BME280;11041;50.854;20.580;2023-04-01T03:07:18;96925.50;;;5.83;100.00
21760;BME280;11041;50.854;20.580;2023-04-01T03:09:45;96957.16;;;6.05;100.00
21760;BME280;11041;50.854;20.580;2023-04-01T03:12:11;96928.03;;;5.97;100.00
21760;BME280;11041;50.854;20.580;2023-04-01T03:14:37;96926.22;;;6.01;100.00
21760;BME280;11041;50.854;20.580;2023-04-01T03:17:04;96947.63;;;6.20;100.00
21760;BME280;11041;50.854;20.580;2023-04-01T03:19:31;96920.88;;;6.13;100.00
21760;BME280;11041;50.854;20.580;2023-04-01T03:21:58;96924.06;;;6.15;100.00
21760;BME280;11041;50.854;20.580;2023-04-01T03:24:24;96922.75;;;6.22;100.00
21760;BME280;11041;50.854;20.580;2023-04-01T03:26:51;96949.09;;;6.38;100.00
21760;BME280;11041;50.854;20.580;2023-04-01T03:29:17;96948.78;;;6.40;99.94
21760;BME280;11041;50.854;20.580;2023-04-01T03:31:44;96932.00;;;6.29;100.00
21760;BME280;11041;50.854;20.580;2023-04-01T03:34:11;96931.88;;;6.26;99.84
21760;BME280;11041;50.854;20.580;2023-04-01T03:36:37;96933.94;;;6.29;100.00
21760;BME280;11041;50.854;20.580;2023-04-01T03:39:04;96956.28;;;6.43;99.84
21760;BME280;11041;50.854;20.580;2023-04-01T03:41:32;96957.75;;;6.40;100.00
21760;BME280;11041;50.854;20.580;2023-04-01T03:43:58;96933.13;;;6.28;99.69
21760;BME280;11041;50.854;20.580;2023-04-01T03:46:25;96943.50;;;6.35;99.38
21760;BME280;11041;50.854;20.580;2023-04-01T03:48:51;96947.25;;;6.30;99.15
21760;BME280;11041;50.854;20.580;2023-04-01T03:51:18;96956.28;;;6.43;99.27
21760;BME280;11041;50.854;20.580;2023-04-01T03:53:44;96962.59;;;6.35;99.31
21760;BME280;11041;50.854;20.580;2023-04-01T03:56:11;96958.44;;;6.37;99.11
21760;BME280;11041;50.854;20.580;2023-04-01T03:58:38;96975.06;;;6.45;99.37
21760;BME280;11041;50.854;20.580;2023-04-01T04:01:21;96970.59;;;6.40;99.03
21760;BME280;11041;50.854;20.580;2023-04-01T04:03:50;96950.88;;;6.34;98.88
21760;BME280;11041;50.854;20.580;2023-04-01T04:06:19;96973.78;;;6.42;99.02
21760;BME280;11041;50.854;20.580;2023-04-01T04:08:46;96962.78;;;6.30;98.72
21760;BME280;11041;50.854;20.580;2023-04-01T04:11:13;96972.72;;;6.34;99.63
21760;BME280;11041;50.854;20.580;2023-04-01T04:13:40;96959.16;;;6.26;99.56
21760;BME280;11041;50.854;20.580;2023-04-01T04:16:08;96954.16;;;6.28;98.83
21760;BME280;11041;50.854;20.580;2023-04-01T04:18:37;96967.06;;;6.39;99.39
21760;BME280;11041;50.854;20.580;2023-04-01T04:21:04;96967.41;;;6.38;99.69
21760;BME280;11041;50.854;20.580;2023-04-01T04:23:31;96966.47;;;6.34;99.50
21760;BME280;11041;50.854;20.580;2023-04-01T04:26:04;96972.00;;;6.46;99.72
21760;BME280;11041;50.854;20.580;2023-04-01T04:28:32;96958.75;;;6.36;99.49
21760;BME280;11041;50.854;20.580;2023-04-01T04:30:59;96957.13;;;6.35;100.00
21760;BME280;11041;50.854;20.580;2023-04-01T04:33:27;96956.03;;;6.36;99.92
21760;BME280;11041;50.854;20.580;2023-04-01T04:35:57;96970.53;;;6.49;99.77
21760;BME280;11041;50.854;20.580;2023-04-01T04:38:24;96958.22;;;6.43;99.90
21760;BME280;11041;50.854;20.580;2023-04-01T04:40:51;96970.00;;;6.55;100.00
21760;BME280;11041;50.854;20.580;2023-04-01T04:43:19;96983.72;;;6.68;100.00
21760;BME280;11041;50.854;20.580;2023-04-01T04:45:46;96981.94;;;6.72;99.70
21760;BME280;11041;50.854;20.580;2023-04-01T04:48:15;96971.41;;;6.61;99.25
21760;BME280;11041;50.854;20.580;2023-04-01T04:50:49;96963.09;;;6.58;99.02
21760;BME280;11041;50.854;20.580;2023-04-01T04:53:18;96958.78;;;6.57;98.91
21760;BME280;11041;50.854;20.580;2023-04-01T04:55:50;96984.66;;;6.72;98.37
21760;BME280;11041;50.854;20.580;2023-04-01T04:58:17;96989.66;;;6.70;98.41
21760;BME280;11041;50.854;20.580;2023-04-01T05:00:45;96970.13;;;6.59;98.22
21760;BME280;11041;50.854;20.580;2023-04-01T05:03:13;96972.84;;;6.59;98.73
21760;BME280;11041;50.854;20.580;2023-04-01T05:05:48;96984.88;;;6.67;99.24
21760;BME280;11041;50.854;20.580;2023-04-01T05:08:15;96962.50;;;6.52;99.41
21760;BME280;11041;50.854;20.580;2023-04-01T05:10:41;96979.59;;;6.61;99.54
21760;BME280;11041;50.854;20.580;2023-04-01T05:13:08;96982.19;;;6.58;98.97
21760;BME280;11041;50.854;20.580;2023-04-01T05:15:35;96983.78;;;6.59;99.27
21760;BME280;11041;50.854;20.580;2023-04-01T05:18:01;96985.38;;;6.60;99.20
21760;BME280;11041;50.854;20.580;2023-04-01T05:20:28;96989.06;;;6.64;100.00
21760;BME280;11041;50.854;20.580;2023-04-01T05:22:59;96988.06;;;6.69;99.57
21760;BME280;11041;50.854;20.580;2023-04-01T05:25:27;96981.94;;;6.72;99.43
21760;BME280;11041;50.854;20.580;2023-04-01T05:27:53;96990.59;;;6.74;99.53
21760;BME280;11041;50.854;20.580;2023-04-01T05:30:21;96989.66;;;6.70;99.66
21760;BME280;11041;50.854;20.580;2023-04-01T05:32:47;96993.91;;;6.79;100.00
21760;BME280;11041;50.854;20.580;2023-04-01T05:35:14;96993.38;;;6.86;99.92
21760;BME280;11041;50.854;20.580;2023-04-01T05:37:41;96967.28;;;6.76;100.00
21760;BME280;11041;50.854;20.580;2023-04-01T05:40:10;96990.81;;;7.02;100.00
21760;BME280;11041;50.854;20.580;2023-04-01T05:42:37;96990.28;;;7.09;99.35
21760;BME280;11041;50.854;20.580;2023-04-01T05:45:04;96986.09;;;7.11;99.63
21760;BME280;11041;50.854;20.580;2023-04-01T05:47:31;96995.72;;;7.30;98.77
21760;BME280;11041;50.854;20.580;2023-04-01T05:49:57;96992.44;;;7.36;98.30
21760;BME280;11041;50.854;20.580;2023-04-01T05:52:24;96970.09;;;7.22;98.23
21760;BME280;11041;50.854;20.580;2023-04-01T05:54:51;96966.00;;;7.28;98.26
21760;BME280;11041;50.854;20.580;2023-04-01T05:57:17;96975.03;;;7.41;98.97
21760;BME280;11041;50.854;20.580;2023-04-01T05:59:44;96975.72;;;7.50;98.67
21760;BME280;11041;50.854;20.580;2023-04-01T06:02:18;96982.03;;;7.63;96.63
21760;BME280;11041;50.854;20.580;2023-04-01T06:04:46;96980.66;;;7.69;97.55
21760;BME280;11041;50.854;20.580;2023-04-01T06:07:17;96965.16;;;7.61;97.42
21760;BME280;11041;50.854;20.580;2023-04-01T06:09:45;96983.75;;;7.80;96.96
21760;BME280;11041;50.854;20.580;2023-04-01T06:15:40;96997.78;;;7.90;96.56
21760;BME280;11041;50.854;20.580;2023-04-01T06:27:20;96998.94;;;7.89;97.28
21760;BME280;11041;50.854;20.580;2023-04-01T06:49:03;96995.97;;;8.19;96.37
21760;BME280;11041;50.854;20.580;2023-04-01T06:51:31;96989.00;;;8.22;96.18
21760;BME280;11041;50.854;20.580;2023-04-01T06:54:21;96996.41;;;8.33;94.98
21760;BME280;11041;50.854;20.580;2023-04-01T06:56:59;96976.56;;;8.24;95.22
21760;BME280;11041;50.854;20.580;2023-04-01T06:59:32;97002.59;;;8.43;95.45
21760;BME280;11041;50.854;20.580;2023-04-01T07:05:06;96994.59;;;8.50;93.82
21760;BME280;11041;50.854;20.580;2023-04-01T07:07:46;96989.59;;;8.52;94.11
21760;BME280;11041;50.854;20.580;2023-04-01T07:11:17;96998.81;;;8.60;94.83
21760;BME280;11041;50.854;20.580;2023-04-01T07:17:06;97007.22;;;8.79;94.53
21760;BME280;11041;50.854;20.580;2023-04-01T07:20:01;96993.31;;;8.72;94.08
21760;BME280;11041;50.854;20.580;2023-04-01T07:22:35;96992.28;;;8.77;93.74
21760;BME280;11041;50.854;20.580;2023-04-01T07:25:29;96991.94;;;8.78;92.99
21760;BME280;11041;50.854;20.580;2023-04-01T07:28:16;97006.72;;;8.89;92.84
21760;BME280;11041;50.854;20.580;2023-04-01T07:31:11;97011.53;;;8.92;92.48
21760;BME280;11041;50.854;20.580;2023-04-01T07:34:04;96990.44;;;8.81;92.86
21760;BME280;11041;50.854;20.580;2023-04-01T07:37:00;97007.63;;;8.93;93.33
21760;BME280;11041;50.854;20.580;2023-04-01T07:40:01;97013.56;;;8.95;92.52
21760;BME280;11041;50.854;20.580;2023-04-01T07:49:15;97011.53;;;8.92;93.14
21760;BME280;11041;50.854;20.580;2023-04-01T07:54:58;96998.16;;;8.91;92.51
21760;BME280;11041;50.854;20.580;2023-04-01T08:01:03;97006.47;;;9.07;92.48
21760;BME280;11041;50.854;20.580;2023-04-01T08:03:53;97008.94;;;9.12;92.79
21760;BME280;11041;50.854;20.580;2023-04-01T08:13:02;97018.56;;;9.34;91.74
21760;BME280;11041;50.854;20.580;2023-04-01T08:21:28;97000.75;;;9.28;90.14
21760;BME280;11041;50.854;20.580;2023-04-01T08:24:04;97012.50;;;9.41;90.15
21760;BME280;11041;50.854;20.580;2023-04-01T08:26:44;97027.44;;;9.43;90.38
21760;BME280;11041;50.854;20.580;2023-04-01T08:29:42;97017.50;;;9.38;91.35
21760;BME280;11041;50.854;20.580;2023-04-01T08:32:26;97014.06;;;9.42;91.23
21760;BME280;11041;50.854;20.580;2023-04-01T08:35:34;97023.84;;;9.55;90.67
21760;BME280;11041;50.854;20.580;2023-04-01T08:55:34;97013.44;;;10.08;87.09
21760;BME280;11041;50.854;20.580;2023-04-01T09:19:21;97010.09;;;10.31;86.41
21760;BME280;11041;50.854;20.580;2023-04-01T09:27:45;97004.78;;;10.06;89.45
21760;BME280;11041;50.854;20.580;2023-04-01T09:33:53;97030.31;;;9.78;93.08
21760;BME280;11041;50.854;20.580;2023-04-01T09:36:45;97032.00;;;9.67;94.56
21760;BME280;11041;50.854;20.580;2023-04-01T09:45:00;97014.78;;;9.38;96.22
21760;BME280;11041;50.854;20.580;2023-04-01T09:47:43;96997.75;;;9.33;96.96
21760;BME280;11041;50.854;20.580;2023-04-01T09:53:46;97034.34;;;9.53;96.49
21760;BME280;11041;50.854;20.580;2023-04-01T10:30:39;97027.34;;;10.15;93.07
21760;BME280;11041;50.854;20.580;2023-04-01T10:33:45;97000.50;;;9.93;93.38
21760;BME280;11041;50.854;20.580;2023-04-01T10:36:50;97037.09;;;10.13;94.72
21760;BME280;11041;50.854;20.580;2023-04-01T10:39:38;97014.75;;;10.14;94.19
21760;BME280;11041;50.854;20.580;2023-04-01T11:24:46;97027.75;;;11.20;79.15
21760;BME280;11041;50.854;20.580;2023-04-01T11:40:27;97014.63;;;10.94;75.49
21760;BME280;11041;50.854;20.580;2023-04-01T11:43:29;97004.50;;;10.78;75.49
21760;BME280;11041;50.854;20.580;2023-04-01T11:46:33;97017.53;;;10.81;76.64
21760;BME280;11041;50.854;20.580;2023-04-01T11:55:38;97015.03;;;10.92;78.25
21760;BME280;11041;50.854;20.580;2023-04-01T12:01:41;97005.91;;;10.88;78.10
21760;BME280;11041;50.854;20.580;2023-04-01T12:11:20;97010.06;;;10.82;78.28
21760;BME280;11041;50.854;20.580;2023-04-01T12:13:45;97016.88;;;10.88;77.58
21760;BME280;11041;50.854;20.580;2023-04-01T12:19:53;97015.03;;;10.92;77.82
21760;BME280;11041;50.854;20.580;2023-04-01T12:44:07;97029.63;;;12.70;67.25
21760;BME280;11041;50.854;20.580;2023-04-01T12:55:43;97008.63;;;12.58;69.76
21760;BME280;11041;50.854;20.580;2023-04-01T13:01:40;96996.22;;;13.02;68.57
21760;BME280;11041;50.854;20.580;2023-04-01T13:10:08;97022.00;;;12.86;69.41
21760;BME280;11041;50.854;20.580;2023-04-01T13:16:42;97021.38;;;12.96;69.48
21760;BME280;11041;50.854;20.580;2023-04-01T13:19:31;97008.44;;;12.74;70.57
21760;BME280;11041;50.854;20.580;2023-04-01T13:22:44;97020.09;;;12.64;69.97
21760;BME280;11041;50.854;20.580;2023-04-01T13:25:40;97028.50;;;12.48;71.15
21760;BME280;11041;50.854;20.580;2023-04-01T13:28:23;97024.63;;;12.26;72.27
21760;BME280;11041;50.854;20.580;2023-04-01T13:39:53;97046.97;;;11.78;75.28
21760;BME280;11041;50.854;20.580;2023-04-01T13:42:47;97045.47;;;11.61;77.85
21760;BME280;11041;50.854;20.580;2023-04-01T13:45:27;97034.47;;;11.42;80.77
21760;BME280;11041;50.854;20.580;2023-04-01T13:57:40;97017.16;;;10.83;83.19
21760;BME280;11041;50.854;20.580;2023-04-01T14:10:31;97033.56;;;10.79;89.94
21760;BME280;11041;50.854;20.580;2023-04-01T14:14:05;97048.59;;;11.21;88.14
21760;BME280;11041;50.854;20.580;2023-04-01T14:16:30;97044.03;;;11.48;87.82
21760;BME280;11041;50.854;20.580;2023-04-01T14:19:40;97039.13;;;12.00;84.07
21760;BME280;11041;50.854;20.580;2023-04-01T14:23:12;97036.16;;;12.31;82.72
21760;BME280;11041;50.854;20.580;2023-04-01T14:29:28;97058.31;;;12.65;76.39
21760;BME280;11041;50.854;20.580;2023-04-01T14:35:46;97043.72;;;12.38;77.13
21760;BME280;11041;50.854;20.580;2023-04-01T14:38:27;97019.44;;;12.21;77.54
21760;BME280;11041;50.854;20.580;2023-04-01T14:41:20;97049.84;;;12.28;78.23
21760;BME280;11041;50.854;20.580;2023-04-01T14:50:30;97057.31;;;11.85;78.27
21760;BME280;11041;50.854;20.580;2023-04-01T14:55:58;97063.59;;;11.43;80.30
21760;BME280;11041;50.854;20.580;2023-04-01T14:58:47;97048.38;;;11.10;82.85
21760;BME280;11041;50.854;20.580;2023-04-01T15:01:40;97080.97;;;10.92;86.14
21760;BME280;11041;50.854;20.580;2023-04-01T15:07:49;97082.44;;;10.38;90.16
21760;BME280;11041;50.854;20.580;2023-04-01T15:23:15;97089.59;;;9.67;94.85
21760;BME280;11041;50.854;20.580;2023-04-01T15:32:02;97105.44;;;9.74;95.95
21760;BME280;11041;50.854;20.580;2023-04-01T15:41:09;97109.78;;;9.91;96.58
21760;BME280;11041;50.854;20.580;2023-04-01T15:43:49;97102.28;;;9.88;96.45
21760;BME280;11041;50.854;20.580;2023-04-01T15:52:02;97124.81;;;9.81;96.67
21760;BME280;11041;50.854;20.580;2023-04-01T16:13:10;97120.63;;;9.03;99.15
21760;BME280;11041;50.854;20.580;2023-04-01T16:18:54;97171.41;;;9.00;99.36
21760;BME280;11041;50.854;20.580;2023-04-01T16:24:56;97165.59;;;8.89;100.00
21760;BME280;11041;50.854;20.580;2023-04-01T16:31:09;97172.69;;;8.90;100.00
21760;BME280;11041;50.854;20.580;2023-04-01T16:34:21;97159.88;;;8.82;100.00
21760;BME280;11041;50.854;20.580;2023-04-01T16:37:04;97182.38;;;8.88;99.30
21760;BME280;11041;50.854;20.580;2023-04-01T16:40:09;97118.69;;;8.42;99.64
21760;BME280;11041;50.854;20.580;2023-04-01T16:42:49;97187.72;;;8.84;99.36
21760;BME280;11041;50.854;20.580;2023-04-01T16:45:45;97194.22;;;8.80;99.69
21760;BME280;11041;50.854;20.580;2023-04-01T16:48:45;97180.28;;;8.60;99.48
21760;BME280;11041;50.854;20.580;2023-04-01T16:51:20;97200.03;;;8.66;100.00
21760;BME280;11041;50.854;20.580;2023-04-01T16:54:28;97208.94;;;8.75;99.30
21760;BME280;11041;50.854;20.580;2023-04-01T17:03:27;97199.13;;;8.49;99.62
21760;BME280;11041;50.854;20.580;2023-04-01T17:06:31;97218.63;;;8.60;99.93
21760;BME280;11041;50.854;20.580;2023-04-01T17:15:32;97228.00;;;8.59;100.00
21760;BME280;11041;50.854;20.580;2023-04-01T17:18:43;97239.28;;;8.58;100.00
21760;BME280;11041;50.854;20.580;2023-04-01T17:21:55;97196.63;;;8.23;100.00
21760;BME280;11041;50.854;20.580;2023-04-01T17:28:14;97247.38;;;8.54;100.00
21760;BME280;11041;50.854;20.580;2023-04-01T17:37:28;97238.50;;;8.36;100.00
21760;BME280;11041;50.854;20.580;2023-04-01T17:46:50;97271.31;;;8.45;100.00
21760;BME280;11041;50.854;20.580;2023-04-01T17:49:33;97261.88;;;8.33;100.00
21760;BME280;11041;50.854;20.580;2023-04-01T18:01:34;97279.47;;;8.11;100.00
21760;BME280;11041;50.854;20.580;2023-04-01T18:07:20;97307.66;;;8.24;100.00
21760;BME280;11041;50.854;20.580;2023-04-01T18:16:45;97300.00;;;8.18;100.00
21760;BME280;11041;50.854;20.580;2023-04-01T18:22:17;97325.03;;;8.28;100.00
21760;BME280;11041;50.854;20.580;2023-04-01T18:28:40;97322.63;;;8.27;100.00
21760;BME280;11041;50.854;20.580;2023-04-01T18:31:34;97341.25;;;8.33;100.00
21760;BME280;11041;50.854;20.580;2023-04-01T18:34:29;97322.97;;;8.25;100.00
21760;BME280;11041;50.854;20.580;2023-04-01T18:41:07;97335.97;;;8.28;100.00
21760;BME280;11041;50.854;20.580;2023-04-01T18:44:07;97343.50;;;8.31;100.00
21760;BME280;11041;50.854;20.580;2023-04-01T18:47:24;97351.44;;;8.24;100.00
21760;BME280;11041;50.854;20.580;2023-04-01T18:53:20;97347.53;;;8.13;100.00
21760;BME280;11041;50.854;20.580;2023-04-01T18:55:53;97346.13;;;8.07;100.00
21760;BME280;11041;50.854;20.580;2023-04-01T19:04:31;97368.28;;;8.14;100.00
21760;BME280;11041;50.854;20.580;2023-04-01T19:13:29;97376.47;;;8.14;100.00
21760;BME280;11041;50.854;20.580;2023-04-01T19:28:38;97394.22;;;8.08;100.00
21760;BME280;11041;50.854;20.580;2023-04-01T19:34:26;97397.63;;;8.05;100.00
21760;BME280;11041;50.854;20.580;2023-04-01T19:43:56;97422.75;;;7.98;100.00
21760;BME280;11041;50.854;20.580;2023-04-01T19:52:33;97430.50;;;7.96;100.00
21760;BME280;11041;50.854;20.580;2023-04-01T19:58:24;97412.44;;;7.74;100.00
21760;BME280;11041;50.854;20.580;2023-04-01T20:00:56;97420.97;;;7.73;100.00
21760;BME280;11041;50.854;20.580;2023-04-01T20:03:54;97446.34;;;7.82;100.00
21760;BME280;11041;50.854;20.580;2023-04-01T20:07:00;97392.78;;;7.51;100.00
21760;BME280;11041;50.854;20.580;2023-04-01T20:16:00;97466.41;;;7.95;100.00
21760;BME280;11041;50.854;20.580;2023-04-01T20:24:00;97425.66;;;7.72;100.00
21760;BME280;11041;50.854;20.580;2023-04-01T20:26:38;97434.13;;;7.79;100.00
21760;BME280;11041;50.854;20.580;2023-04-01T20:41:40;97470.19;;;7.73;100.00
21760;BME280;11041;50.854;20.580;2023-04-01T20:45:10;97447.72;;;7.58;100.00
21760;BME280;11041;50.854;20.580;2023-04-01T20:50:41;97485.16;;;7.66;100.00
21760;BME280;11041;50.854;20.580;2023-04-01T20:53:42;97487.91;;;7.66;100.00
21760;BME280;11041;50.854;20.580;2023-04-01T20:56:30;97466.06;;;7.58;100.00
21760;BME280;11041;50.854;20.580;2023-04-01T21:02:48;97490.09;;;7.82;100.00
21760;BME280;11041;50.854;20.580;2023-04-01T21:11:59;97510.66;;;7.88;100.00
21760;BME280;11041;50.854;20.580;2023-04-01T21:18:23;97510.72;;;7.79;100.00
21760;BME280;11041;50.854;20.580;2023-04-01T21:27:12;97506.47;;;7.43;100.00
21760;BME280;11041;50.854;20.580;2023-04-01T21:38:39;97541.03;;;7.39;100.00
21760;BME280;11041;50.854;20.580;2023-04-01T21:44:33;97523.84;;;7.30;100.00
21760;BME280;11041;50.854;20.580;2023-04-01T21:53:26;97545.69;;;7.39;100.00
21760;BME280;11041;50.854;20.580;2023-04-01T22:05:37;97570.63;;;7.20;100.00
21760;BME280;11041;50.854;20.580;2023-04-01T22:08:26;97567.22;;;7.14;100.00
21760;BME280;11041;50.854;20.580;2023-04-01T22:17:17;97532.34;;;6.68;100.00
21760;BME280;11041;50.854;20.580;2023-04-01T22:20:20;97594.22;;;6.98;100.00
21760;BME280;11041;50.854;20.580;2023-04-01T22:25:53;97573.16;;;6.81;100.00
21760;BME280;11041;50.854;20.580;2023-04-01T22:28:35;97566.91;;;6.81;100.00
21760;BME280;11041;50.854;20.580;2023-04-01T22:31:05;97597.59;;;6.95;100.00
21760;BME280;11041;50.854;20.580;2023-04-01T22:34:12;97592.47;;;6.94;100.00
21760;BME280;11041;50.854;20.580;2023-04-01T22:40:41;97585.69;;;6.82;100.00
21760;BME280;11041;50.854;20.580;2023-04-01T22:43:08;97598.84;;;6.80;100.00
21760;BME280;11041;50.854;20.580;2023-04-01T22:49:15;97607.06;;;6.89;100.00
21760;BME280;11041;50.854;20.580;2023-04-01T22:52:27;97611.41;;;6.81;100.00
21760;BME280;11041;50.854;20.580;2023-04-01T22:55:13;97600.78;;;6.71;100.00
21760;BME280;11041;50.854;20.580;2023-04-01T22:58:04;97603.03;;;6.78;100.00
21760;BME280;11041;50.854;20.580;2023-04-01T23:00:47;97566.03;;;6.46;100.00
21760;BME280;11041;50.854;20.580;2023-04-01T23:03:37;97610.75;;;6.76;100.00
21760;BME280;11041;50.854;20.580;2023-04-01T23:06:15;97636.63;;;6.87;100.00
21760;BME280;11041;50.854;20.580;2023-04-01T23:09:00;97620.69;;;6.80;100.00
21760;BME280;11041;50.854;20.580;2023-04-01T23:14:56;97639.19;;;6.92;100.00
21760;BME280;11041;50.854;20.580;2023-04-01T23:20:39;97631.00;;;6.83;100.00
21760;BME280;11041;50.854;20.580;2023-04-01T23:29:03;97616.94;;;6.59;100.00
21760;BME280;11041;50.854;20.580;2023-04-01T23:32:04;97619.84;;;6.63;100.00
21760;BME280;11041;50.854;20.580;2023-04-01T23:34:35;97637.56;;;6.74;100.00
21760;BME280;11041;50.854;20.580;2023-04-01T23:37:11;97626.44;;;6.61;100.00
21760;BME280;11041;50.854;20.580;2023-04-01T23:39:41;97629.78;;;6.58;100.00
21760;BME280;11041;50.854;20.580;2023-04-01T23:44:56;97661.63;;;6.72;100.00
21760;BME280;11041;50.854;20.580;2023-04-01T23:47:46;97655.69;;;6.70;100.00
21760;BME280;11041;50.854;20.580;2023-04-01T23:50:22;97657.75;;;6.64;100.00
21760;BME280;11041;50.854;20.580;2023-04-01T23:53:01;97660.31;;;6.60;100.00
21760;BME280;11041;50.854;20.580;2023-04-01T23:55:32;97657.06;;;6.50;100.00
